sensor_id;sensor_type;location;lat;lon;timestamp;temperature;humidity
60033;DHT22;45905;50.570;10.428;2023-06-14T00:02:23;15.90;60.10
60033;DHT22;45905;50.570;10.428;2023-06-14T00:07:22;15.80;64.70
60033;DHT22;45905;50.570;10.428;2023-06-14T00:10:05;15.60;64.20
60033;DHT22;45905;50.570;10.428;2023-06-14T00:12:33;15.00;62.90
60033;DHT22;45905;50.570;10.428;2023-06-14T00:15:01;15.50;56.00
60033;DHT22;45905;50.570;10.428;2023-06-14T00:19:58;15.50;55.70
60033;DHT22;45905;50.570;10.428;2023-06-14T00:22:26;15.80;58.80
60033;DHT22;45905;50.570;10.428;2023-06-14T00:34:51;15.10;57.70
60033;DHT22;45905;50.570;10.428;2023-06-14T00:37:19;15.10;63.60
60033;DHT22;45905;50.570;10.428;2023-06-14T00:39:46;15.10;58.80
60033;DHT22;45905;50.570;10.428;2023-06-14T00:42:26;15.40;61.40
60033;DHT22;45905;50.570;10.428;2023-06-14T00:49:50;15.00;58.30
60033;DHT22;45905;50.570;10.428;2023-06-14T00:52:18;15.00;59.00
60033;DHT22;45905;50.570;10.428;2023-06-14T00:57:14;14.80;59.70
60033;DHT22;45905;50.570;10.428;2023-06-14T00:59:47;14.80;59.50
60033;DHT22;45905;50.570;10.428;2023-06-14T01:02:16;14.80;59.00
60033;DHT22;45905;50.570;10.428;2023-06-14T01:04:49;14.80;61.10
60033;DHT22;45905;50.570;10.428;2023-06-14T01:10:33;14.20;61.90
60033;DHT22;45905;50.570;10.428;2023-06-14T01:13:32;15.00;64.10
60033;DHT22;45905;50.570;10.428;2023-06-14T01:16:01;14.10;63.50
60033;DHT22;45905;50.570;10.428;2023-06-14T01:18:30;14.60;59.10
60033;DHT22;45905;50.570;10.428;2023-06-14T01:21:01;15.00;60.40
60033;DHT22;45905;50.570;10.428;2023-06-14T01:23:32;14.00;64.50
60033;DHT22;45905;50.570;10.428;2023-06-14T01:26:01;14.40;59.20
60033;DHT22;45905;50.570;10.428;2023-06-14T01:28:34;14.80;64.00
60033;DHT22;45905;50.570;10.428;2023-06-14T01:31:03;14.50;62.90
60033;DHT22;45905;50.570;10.428;2023-06-14T01:33:33;14.20;59.50
60033;DHT22;45905;50.570;10.428;2023-06-14T01:36:05;14.20;60.00
60033;DHT22;45905;50.570;10.428;2023-06-14T01:38:35;13.90;63.10
60033;DHT22;45905;50.570;10.428;2023-06-14T01:41:04;14.50;61.50
60033;DHT22;45905;50.570;10.428;2023-06-14T01:43:31;13.70;60.40
60033;DHT22;45905;50.570;10.428;2023-06-14T01:46:03;14.60;63.30
60033;DHT22;45905;50.570;10.428;2023-06-14T01:48:32;14.00;61.00
60033;DHT22;45905;50.570;10.428;2023-06-14T01:51:00;14.30;62.40
60033;DHT22;45905;50.570;10.428;2023-06-14T01:58:22;13.80;62.00
60033;DHT22;45905;50.570;10.428;2023-06-14T02:00:50;14.00;62.00
60033;DHT22;45905;50.570;10.428;2023-06-14T02:03:22;13.80;63.60
60033;DHT22;45905;50.570;10.428;2023-06-14T02:20:38;13.40;62.30
60033;DHT22;45905;50.570;10.428;2023-06-14T02:40:23;12.80;62.50
60033;DHT22;45905;50.570;10.428;2023-06-14T02:45:18;13.10;65.20
60033;DHT22;45905;50.570;10.428;2023-06-14T02:57:40;12.60;66.00
60033;DHT22;45905;50.570;10.428;2023-06-14T03:07:40;13.00;69.00
60033;DHT22;45905;50.570;10.428;2023-06-14T03:22:43;13.10;90.00
60033;DHT22;45905;50.570;10.428;2023-06-14T03:25:13;12.90;90.60
60033;DHT22;45905;50.570;10.428;2023-06-14T04:10:16;13.40;71.00
60033;DHT22;45905;50.570;10.428;2023-06-14T05:00:08;13.50;74.60
60033;DHT22;45905;50.570;10.428;2023-06-14T05:07:35;13.30;91.30
60033;DHT22;45905;50.570;10.428;2023-06-14T05:20:00;13.60;90.10
60033;DHT22;45905;50.570;10.428;2023-06-14T05:37:17;14.40;86.40
60033;DHT22;45905;50.570;10.428;2023-06-14T05:44:40;13.90;75.70
60033;DHT22;45905;50.570;10.428;2023-06-14T05:54:30;14.50;83.10
60033;DHT22;45905;50.570;10.428;2023-06-14T06:06:52;15.20;74.30
60033;DHT22;45905;50.570;10.428;2023-06-14T06:11:47;15.50;86.90
60033;DHT22;45905;50.570;10.428;2023-06-14T06:31:34;15.50;88.50
60033;DHT22;45905;50.570;10.428;2023-06-14T07:11:06;16.60;77.90
60033;DHT22;45905;50.570;10.428;2023-06-14T07:25:54;16.70;77.50
60033;DHT22;45905;50.570;10.428;2023-06-14T07:45:37;17.40;75.40
60033;DHT22;45905;50.570;10.428;2023-06-14T07:48:08;16.90;62.10
60033;DHT22;45905;50.570;10.428;2023-06-14T08:30:21;17.90;59.10
60033;DHT22;45905;50.570;10.428;2023-06-14T08:40:37;18.10;58.90
60033;DHT22;45905;50.570;10.428;2023-06-14T08:50:34;18.90;64.70
60033;DHT22;45905;50.570;10.428;2023-06-14T08:53:08;18.50;57.40
60033;DHT22;45905;50.570;10.428;2023-06-14T09:00:42;19.10;65.40
60033;DHT22;45905;50.570;10.428;2023-06-14T09:03:11;19.20;64.10
60033;DHT22;45905;50.570;10.428;2023-06-14T09:10:37;20.60;59.20
60033;DHT22;45905;50.570;10.428;2023-06-14T09:15:34;19.00;57.50
60033;DHT22;45905;50.570;10.428;2023-06-14T09:18:02;18.80;57.70
60033;DHT22;45905;50.570;10.428;2023-06-14T09:20:30;19.10;56.70
60033;DHT22;45905;50.570;10.428;2023-06-14T09:22:58;18.80;57.00
60033;DHT22;45905;50.570;10.428;2023-06-14T09:30:25;19.80;59.30
60033;DHT22;45905;50.570;10.428;2023-06-14T09:40:25;19.10;57.00
60033;DHT22;45905;50.570;10.428;2023-06-14T09:45:22;19.60;64.80
60033;DHT22;45905;50.570;10.428;2023-06-14T09:47:51;19.10;57.50
60033;DHT22;45905;50.570;10.428;2023-06-14T09:50:33;15.30;53.50
60033;DHT22;45905;50.570;10.428;2023-06-14T09:53:10;19.20;55.80
60033;DHT22;45905;50.570;10.428;2023-06-14T09:55:41;19.30;56.20
60033;DHT22;45905;50.570;10.428;2023-06-14T09:58:09;19.30;55.80
60033;DHT22;45905;50.570;10.428;2023-06-14T10:00:39;19.30;55.80
60033;DHT22;45905;50.570;10.428;2023-06-14T10:03:13;19.40;54.50
60033;DHT22;45905;50.570;10.428;2023-06-14T10:05:45;19.50;55.60
60033;DHT22;45905;50.570;10.428;2023-06-14T10:08:16;19.50;55.30
60033;DHT22;45905;50.570;10.428;2023-06-14T10:18:40;19.60;56.10
60033;DHT22;45905;50.570;10.428;2023-06-14T10:22:18;19.90;54.90
60033;DHT22;45905;50.570;10.428;2023-06-14T10:24:42;19.50;57.30
60033;DHT22;45905;50.570;10.428;2023-06-14T10:27:14;19.70;55.80
60033;DHT22;45905;50.570;10.428;2023-06-14T10:32:21;19.90;55.90
60033;DHT22;45905;50.570;10.428;2023-06-14T10:35:00;20.00;55.00
60033;DHT22;45905;50.570;10.428;2023-06-14T10:42:33;20.20;55.90
60033;DHT22;45905;50.570;10.428;2023-06-14T10:47:32;20.30;53.80
60033;DHT22;45905;50.570;10.428;2023-06-14T10:50:08;20.60;64.70
60033;DHT22;45905;50.570;10.428;2023-06-14T10:52:42;20.30;54.40
60033;DHT22;45905;50.570;10.428;2023-06-14T10:55:19;20.30;54.40
60033;DHT22;45905;50.570;10.428;2023-06-14T10:57:54;20.30;53.80
60033;DHT22;45905;50.570;10.428;2023-06-14T11:00:28;20.40;54.00
60033;DHT22;45905;50.570;10.428;2023-06-14T11:05:54;20.30;53.30
60033;DHT22;45905;50.570;10.428;2023-06-14T11:11:18;20.30;52.80
60033;DHT22;45905;50.570;10.428;2023-06-14T11:13:51;20.40;53.20
60033;DHT22;45905;50.570;10.428;2023-06-14T11:16:26;20.50;52.90
60033;DHT22;45905;50.570;10.428;2023-06-14T11:21:24;20.60;52.60
60033;DHT22;45905;50.570;10.428;2023-06-14T11:26:29;20.60;50.70
60033;DHT22;45905;50.570;10.428;2023-06-14T11:28:59;20.70;50.10
60033;DHT22;45905;50.570;10.428;2023-06-14T11:31:28;20.70;50.80
60033;DHT22;45905;50.570;10.428;2023-06-14T11:34:00;20.80;51.40
60033;DHT22;45905;50.570;10.428;2023-06-14T11:36:33;20.90;51.30
60033;DHT22;45905;50.570;10.428;2023-06-14T11:39:05;21.10;49.30
60033;DHT22;45905;50.570;10.428;2023-06-14T11:44:05;21.30;50.00
60033;DHT22;45905;50.570;10.428;2023-06-14T11:49:03;22.20;59.00
60033;DHT22;45905;50.570;10.428;2023-06-14T11:51:35;21.90;49.50
60033;DHT22;45905;50.570;10.428;2023-06-14T11:54:03;22.10;50.20
60033;DHT22;45905;50.570;10.428;2023-06-14T11:56:31;22.50;50.30
60033;DHT22;45905;50.570;10.428;2023-06-14T11:58:59;22.50;47.70
60033;DHT22;45905;50.570;10.428;2023-06-14T12:01:30;22.70;46.90
60033;DHT22;45905;50.570;10.428;2023-06-14T12:03:59;22.80;46.80
60033;DHT22;45905;50.570;10.428;2023-06-14T12:06:29;23.00;47.60
60033;DHT22;45905;50.570;10.428;2023-06-14T12:09:03;23.20;45.90
60033;DHT22;45905;50.570;10.428;2023-06-14T12:11:34;23.30;45.40
60033;DHT22;45905;50.570;10.428;2023-06-14T12:14:04;23.40;47.10
60033;DHT22;45905;50.570;10.428;2023-06-14T12:16:38;23.50;44.80
60033;DHT22;45905;50.570;10.428;2023-06-14T12:19:17;23.50;44.30
60033;DHT22;45905;50.570;10.428;2023-06-14T12:21:48;23.70;42.80
60033;DHT22;45905;50.570;10.428;2023-06-14T12:24:16;23.50;42.90
60033;DHT22;45905;50.570;10.428;2023-06-14T12:29:12;23.50;43.90
60033;DHT22;45905;50.570;10.428;2023-06-14T12:31:40;23.50;43.30
60033;DHT22;45905;50.570;10.428;2023-06-14T12:36:36;24.00;46.30
60033;DHT22;45905;50.570;10.428;2023-06-14T12:44:04;23.60;44.10
60033;DHT22;45905;50.570;10.428;2023-06-14T13:01:19;23.30;47.30
60033;DHT22;45905;50.570;10.428;2023-06-14T13:03:47;23.20;44.60
60033;DHT22;45905;50.570;10.428;2023-06-14T13:18:34;24.50;48.60
60033;DHT22;45905;50.570;10.428;2023-06-14T13:21:01;24.40;42.50
60033;DHT22;45905;50.570;10.428;2023-06-14T13:28:24;25.40;43.30
60033;DHT22;45905;50.570;10.428;2023-06-14T13:35:46;24.70;47.20
60033;DHT22;45905;50.570;10.428;2023-06-14T13:43:10;24.90;44.50
60033;DHT22;45905;50.570;10.428;2023-06-14T13:48:05;24.90;44.30
60033;DHT22;45905;50.570;10.428;2023-06-14T13:50:33;25.50;39.80
60033;DHT22;45905;50.570;10.428;2023-06-14T13:53:00;25.60;38.30
60033;DHT22;45905;50.570;10.428;2023-06-14T13:55:27;25.80;39.00
60033;DHT22;45905;50.570;10.428;2023-06-14T13:57:54;26.00;38.00
60033;DHT22;45905;50.570;10.428;2023-06-14T14:00:23;26.20;39.00
60033;DHT22;45905;50.570;10.428;2023-06-14T14:02:50;26.30;38.50
60033;DHT22;45905;50.570;10.428;2023-06-14T14:05:18;26.40;37.50
60033;DHT22;45905;50.570;10.428;2023-06-14T14:07:47;26.40;36.50
60033;DHT22;45905;50.570;10.428;2023-06-14T14:10:14;26.20;36.20
60033;DHT22;45905;50.570;10.428;2023-06-14T14:12:42;25.90;36.20
60033;DHT22;45905;50.570;10.428;2023-06-14T14:15:09;25.60;36.40
60033;DHT22;45905;50.570;10.428;2023-06-14T14:17:40;25.20;36.50
60033;DHT22;45905;50.570;10.428;2023-06-14T14:20:08;25.00;36.90
60033;DHT22;45905;50.570;10.428;2023-06-14T14:22:38;24.80;37.90
60033;DHT22;45905;50.570;10.428;2023-06-14T14:25:05;24.80;38.90
60033;DHT22;45905;50.570;10.428;2023-06-14T14:27:33;24.80;39.90
60033;DHT22;45905;50.570;10.428;2023-06-14T14:30:00;25.00;39.60
60033;DHT22;45905;50.570;10.428;2023-06-14T14:32:27;25.00;40.10
60033;DHT22;45905;50.570;10.428;2023-06-14T14:34:54;25.40;37.90
60033;DHT22;45905;50.570;10.428;2023-06-14T14:37:22;25.50;38.20
60033;DHT22;45905;50.570;10.428;2023-06-14T14:39:49;25.50;37.20
60033;DHT22;45905;50.570;10.428;2023-06-14T14:42:16;25.60;37.40
60033;DHT22;45905;50.570;10.428;2023-06-14T14:44:45;25.70;36.80
60033;DHT22;45905;50.570;10.428;2023-06-14T14:47:12;25.70;36.40
60033;DHT22;45905;50.570;10.428;2023-06-14T14:49:39;25.60;36.30
60033;DHT22;45905;50.570;10.428;2023-06-14T14:52:07;25.50;37.00
60033;DHT22;45905;50.570;10.428;2023-06-14T14:54:40;25.10;37.10
60033;DHT22;45905;50.570;10.428;2023-06-14T14:57:07;25.20;36.30
60033;DHT22;45905;50.570;10.428;2023-06-14T14:59:35;25.10;37.30
60033;DHT22;45905;50.570;10.428;2023-06-14T15:02:02;25.10;38.00
60033;DHT22;45905;50.570;10.428;2023-06-14T15:04:30;25.30;38.00
60033;DHT22;45905;50.570;10.428;2023-06-14T15:06:57;25.40;37.30
60033;DHT22;45905;50.570;10.428;2023-06-14T15:09:24;25.50;37.20
60033;DHT22;45905;50.570;10.428;2023-06-14T15:11:51;25.60;36.20
60033;DHT22;45905;50.570;10.428;2023-06-14T15:14:19;25.70;36.80
60033;DHT22;45905;50.570;10.428;2023-06-14T15:16:46;25.70;35.20
60033;DHT22;45905;50.570;10.428;2023-06-14T15:19:13;25.70;35.50
60033;DHT22;45905;50.570;10.428;2023-06-14T15:21:41;25.50;36.80
60033;DHT22;45905;50.570;10.428;2023-06-14T15:24:08;25.50;37.00
60033;DHT22;45905;50.570;10.428;2023-06-14T15:26:35;22.00;34.60
60033;DHT22;45905;50.570;10.428;2023-06-14T15:29:02;25.50;35.70
60033;DHT22;45905;50.570;10.428;2023-06-14T15:31:30;25.50;36.80
60033;DHT22;45905;50.570;10.428;2023-06-14T15:33:57;25.40;35.80
60033;DHT22;45905;50.570;10.428;2023-06-14T15:36:25;25.30;36.10
60033;DHT22;45905;50.570;10.428;2023-06-14T15:38:52;25.30;37.00
60033;DHT22;45905;50.570;10.428;2023-06-14T15:41:19;25.50;37.20
60033;DHT22;45905;50.570;10.428;2023-06-14T15:43:46;25.50;37.80
60033;DHT22;45905;50.570;10.428;2023-06-14T15:46:14;25.50;36.10
60033;DHT22;45905;50.570;10.428;2023-06-14T15:48:41;25.40;37.00
60033;DHT22;45905;50.570;10.428;2023-06-14T15:51:09;25.40;36.90
60033;DHT22;45905;50.570;10.428;2023-06-14T15:53:36;25.30;36.90
60033;DHT22;45905;50.570;10.428;2023-06-14T15:56:03;25.20;36.90
60033;DHT22;45905;50.570;10.428;2023-06-14T15:58:31;25.20;36.90
60033;DHT22;45905;50.570;10.428;2023-06-14T16:00:58;25.20;37.30
60033;DHT22;45905;50.570;10.428;2023-06-14T16:03:25;25.20;36.40
60033;DHT22;45905;50.570;10.428;2023-06-14T16:05:54;25.30;36.80
60033;DHT22;45905;50.570;10.428;2023-06-14T16:08:21;25.20;36.00
60033;DHT22;45905;50.570;10.428;2023-06-14T16:11:06;25.00;36.40
60033;DHT22;45905;50.570;10.428;2023-06-14T16:13:33;24.90;36.60
60033;DHT22;45905;50.570;10.428;2023-06-14T16:16:01;24.80;36.40
60033;DHT22;45905;50.570;10.428;2023-06-14T16:18:28;24.70;36.80
60033;DHT22;45905;50.570;10.428;2023-06-14T16:20:55;24.60;37.00
60033;DHT22;45905;50.570;10.428;2023-06-14T16:23:23;24.60;37.40
60033;DHT22;45905;50.570;10.428;2023-06-14T16:25:50;24.50;38.40
60033;DHT22;45905;50.570;10.428;2023-06-14T16:28:18;24.50;38.80
60033;DHT22;45905;50.570;10.428;2023-06-14T16:30:45;24.50;38.40
60033;DHT22;45905;50.570;10.428;2023-06-14T16:33:12;24.40;37.30
60033;DHT22;45905;50.570;10.428;2023-06-14T16:35:39;24.40;38.20
60033;DHT22;45905;50.570;10.428;2023-06-14T16:38:08;24.40;38.40
60033;DHT22;45905;50.570;10.428;2023-06-14T16:40:38;24.50;37.70
60033;DHT22;45905;50.570;10.428;2023-06-14T16:43:06;24.70;37.50
60033;DHT22;45905;50.570;10.428;2023-06-14T16:45:33;24.60;37.30
60033;DHT22;45905;50.570;10.428;2023-06-14T16:48:00;24.60;39.00
60033;DHT22;45905;50.570;10.428;2023-06-14T16:50:27;24.60;38.40
60033;DHT22;45905;50.570;10.428;2023-06-14T16:52:54;24.60;39.60
60033;DHT22;45905;50.570;10.428;2023-06-14T16:55:22;24.60;39.30
60033;DHT22;45905;50.570;10.428;2023-06-14T16:57:50;24.70;39.60
60033;DHT22;45905;50.570;10.428;2023-06-14T17:00:18;24.60;38.60
60033;DHT22;45905;50.570;10.428;2023-06-14T17:02:45;26.40;40.10
60033;DHT22;45905;50.570;10.428;2023-06-14T17:05:13;24.60;38.40
60033;DHT22;45905;50.570;10.428;2023-06-14T17:07:40;24.60;39.10
60033;DHT22;45905;50.570;10.428;2023-06-14T17:10:08;24.60;38.20
60033;DHT22;45905;50.570;10.428;2023-06-14T17:12:35;24.60;38.00
60033;DHT22;45905;50.570;10.428;2023-06-14T17:15:03;24.50;38.40
60033;DHT22;45905;50.570;10.428;2023-06-14T17:17:31;24.50;38.70
60033;DHT22;45905;50.570;10.428;2023-06-14T17:19:58;24.20;38.80
60033;DHT22;45905;50.570;10.428;2023-06-14T17:22:26;24.10;39.50
60033;DHT22;45905;50.570;10.428;2023-06-14T17:24:53;24.10;39.30
60033;DHT22;45905;50.570;10.428;2023-06-14T17:27:20;24.10;39.50
60033;DHT22;45905;50.570;10.428;2023-06-14T17:29:47;24.20;39.20
60033;DHT22;45905;50.570;10.428;2023-06-14T17:32:14;24.20;39.50
60033;DHT22;45905;50.570;10.428;2023-06-14T17:34:41;24.20;39.80
60033;DHT22;45905;50.570;10.428;2023-06-14T17:37:09;24.20;39.70
60033;DHT22;45905;50.570;10.428;2023-06-14T17:39:36;24.10;39.50
60033;DHT22;45905;50.570;10.428;2023-06-14T17:42:06;24.20;39.90
60033;DHT22;45905;50.570;10.428;2023-06-14T17:44:33;24.10;41.00
60033;DHT22;45905;50.570;10.428;2023-06-14T17:47:01;24.10;40.50
60033;DHT22;45905;50.570;10.428;2023-06-14T17:49:28;24.00;40.30
60033;DHT22;45905;50.570;10.428;2023-06-14T17:51:55;24.10;40.00
60033;DHT22;45905;50.570;10.428;2023-06-14T17:54:23;24.10;39.60
60033;DHT22;45905;50.570;10.428;2023-06-14T17:56:51;24.20;40.00
60033;DHT22;45905;50.570;10.428;2023-06-14T17:59:18;24.00;39.90
60033;DHT22;45905;50.570;10.428;2023-06-14T18:01:45;23.90;39.70
60033;DHT22;45905;50.570;10.428;2023-06-14T18:04:12;23.90;39.40
60033;DHT22;45905;50.570;10.428;2023-06-14T18:06:40;23.80;39.70
60033;DHT22;45905;50.570;10.428;2023-06-14T18:09:08;23.70;39.50
60033;DHT22;45905;50.570;10.428;2023-06-14T18:11:35;23.50;39.80
60033;DHT22;45905;50.570;10.428;2023-06-14T18:14:02;23.30;39.70
60033;DHT22;45905;50.570;10.428;2023-06-14T18:16:30;23.40;40.50
60033;DHT22;45905;50.570;10.428;2023-06-14T18:18:57;23.20;41.10
60033;DHT22;45905;50.570;10.428;2023-06-14T18:21:24;23.10;40.80
60033;DHT22;45905;50.570;10.428;2023-06-14T18:23:51;23.20;40.80
60033;DHT22;45905;50.570;10.428;2023-06-14T18:26:24;23.10;40.70
60033;DHT22;45905;50.570;10.428;2023-06-14T18:28:55;23.20;41.20
60033;DHT22;45905;50.570;10.428;2023-06-14T18:31:23;23.10;41.00
60033;DHT22;45905;50.570;10.428;2023-06-14T18:33:50;23.00;41.70
60033;DHT22;45905;50.570;10.428;2023-06-14T18:36:17;22.90;41.30
60033;DHT22;45905;50.570;10.428;2023-06-14T18:38:46;22.80;41.60
60033;DHT22;45905;50.570;10.428;2023-06-14T18:41:13;22.70;41.60
60033;DHT22;45905;50.570;10.428;2023-06-14T18:43:40;22.60;42.00
60033;DHT22;45905;50.570;10.428;2023-06-14T18:46:09;22.60;42.20
60033;DHT22;45905;50.570;10.428;2023-06-14T18:48:38;22.60;42.80
60033;DHT22;45905;50.570;10.428;2023-06-14T18:51:05;22.40;43.60
60033;DHT22;45905;50.570;10.428;2023-06-14T18:53:33;22.30;44.10
60033;DHT22;45905;50.570;10.428;2023-06-14T18:56:00;22.20;44.50
60033;DHT22;45905;50.570;10.428;2023-06-14T18:58:27;22.10;44.80
60033;DHT22;45905;50.570;10.428;2023-06-14T19:00:54;22.00;45.30
60033;DHT22;45905;50.570;10.428;2023-06-14T19:03:21;21.90;46.20
60033;DHT22;45905;50.570;10.428;2023-06-14T19:05:48;21.80;46.70
60033;DHT22;45905;50.570;10.428;2023-06-14T19:08:17;21.80;47.30
60033;DHT22;45905;50.570;10.428;2023-06-14T19:10:45;21.60;48.20
60033;DHT22;45905;50.570;10.428;2023-06-14T19:13:12;21.50;48.20
60033;DHT22;45905;50.570;10.428;2023-06-14T19:15:39;21.30;49.20
60033;DHT22;45905;50.570;10.428;2023-06-14T19:18:06;21.10;49.40
60033;DHT22;45905;50.570;10.428;2023-06-14T19:20:34;21.00;49.70
60033;DHT22;45905;50.570;10.428;2023-06-14T19:23:01;21.00;49.90
60033;DHT22;45905;50.570;10.428;2023-06-14T19:27:57;20.40;48.90
60033;DHT22;45905;50.570;10.428;2023-06-14T19:30:24;20.50;49.40
60033;DHT22;45905;50.570;10.428;2023-06-14T19:32:52;20.80;50.60
60033;DHT22;45905;50.570;10.428;2023-06-14T19:35:19;20.80;51.30
60033;DHT22;45905;50.570;10.428;2023-06-14T19:37:49;20.70;50.50
60033;DHT22;45905;50.570;10.428;2023-06-14T19:40:16;20.50;50.40
60033;DHT22;45905;50.570;10.428;2023-06-14T19:42:45;20.40;50.30
60033;DHT22;45905;50.570;10.428;2023-06-14T19:52:38;20.30;50.80
60033;DHT22;45905;50.570;10.428;2023-06-14T20:00:01;20.40;52.00
60033;DHT22;45905;50.570;10.428;2023-06-14T20:02:34;19.70;51.40
60033;DHT22;45905;50.570;10.428;2023-06-14T20:05:02;20.20;52.40
60033;DHT22;45905;50.570;10.428;2023-06-14T20:07:30;19.90;52.50
60033;DHT22;45905;50.570;10.428;2023-06-14T20:12:26;19.60;52.60
60033;DHT22;45905;50.570;10.428;2023-06-14T20:14:53;19.60;53.40
60033;DHT22;45905;50.570;10.428;2023-06-14T20:17:20;19.40;54.00
60033;DHT22;45905;50.570;10.428;2023-06-14T20:19:48;19.60;54.30
60033;DHT22;45905;50.570;10.428;2023-06-14T20:22:15;19.50;54.00
60033;DHT22;45905;50.570;10.428;2023-06-14T20:24:43;19.20;54.10
60033;DHT22;45905;50.570;10.428;2023-06-14T20:27:10;19.20;54.60
60033;DHT22;45905;50.570;10.428;2023-06-14T20:29:38;19.10;55.00
60033;DHT22;45905;50.570;10.428;2023-06-14T20:32:05;19.10;54.80
60033;DHT22;45905;50.570;10.428;2023-06-14T20:34:33;18.90;54.90
60033;DHT22;45905;50.570;10.428;2023-06-14T20:37:01;18.70;55.30
60033;DHT22;45905;50.570;10.428;2023-06-14T20:39:28;23.50;59.80
60033;DHT22;45905;50.570;10.428;2023-06-14T20:41:56;18.60;55.60
60033;DHT22;45905;50.570;10.428;2023-06-14T20:44:23;18.60;56.20
60033;DHT22;45905;50.570;10.428;2023-06-14T20:46:56;18.50;56.30
60033;DHT22;45905;50.570;10.428;2023-06-14T20:49:24;18.40;56.00
60033;DHT22;45905;50.570;10.428;2023-06-14T20:51:54;18.30;56.10
60033;DHT22;45905;50.570;10.428;2023-06-14T20:54:22;18.20;56.40
60033;DHT22;45905;50.570;10.428;2023-06-14T20:56:49;18.20;56.30
60033;DHT22;45905;50.570;10.428;2023-06-14T20:59:16;18.10;57.70
60033;DHT22;45905;50.570;10.428;2023-06-14T21:01:44;18.00;57.50
60033;DHT22;45905;50.570;10.428;2023-06-14T21:04:11;17.90;57.20
60033;DHT22;45905;50.570;10.428;2023-06-14T21:06:38;17.90;57.50
60033;DHT22;45905;50.570;10.428;2023-06-14T21:09:06;17.80;57.70
60033;DHT22;45905;50.570;10.428;2023-06-14T21:11:33;17.10;57.10
60033;DHT22;45905;50.570;10.428;2023-06-14T21:14:01;17.60;57.50
60033;DHT22;45905;50.570;10.428;2023-06-14T21:16:28;17.60;58.20
60033;DHT22;45905;50.570;10.428;2023-06-14T21:18:55;17.60;58.10
60033;DHT22;45905;50.570;10.428;2023-06-14T21:21:22;17.50;58.80
60033;DHT22;45905;50.570;10.428;2023-06-14T21:23:50;17.40;59.30
60033;DHT22;45905;50.570;10.428;2023-06-14T21:26:17;22.30;63.80
60033;DHT22;45905;50.570;10.428;2023-06-14T21:28:44;17.30;59.60
60033;DHT22;45905;50.570;10.428;2023-06-14T21:31:14;17.30;59.80
60033;DHT22;45905;50.570;10.428;2023-06-14T21:33:44;17.20;60.30
60033;DHT22;45905;50.570;10.428;2023-06-14T21:36:11;17.20;60.00
60033;DHT22;45905;50.570;10.428;2023-06-14T21:38:38;17.10;60.90
60033;DHT22;45905;50.570;10.428;2023-06-14T21:41:06;17.00;60.60
60033;DHT22;45905;50.570;10.428;2023-06-14T21:43:33;17.00;60.20
60033;DHT22;45905;50.570;10.428;2023-06-14T21:46:00;17.00;59.90
60033;DHT22;45905;50.570;10.428;2023-06-14T21:48:27;16.90;60.60
60033;DHT22;45905;50.570;10.428;2023-06-14T21:50:55;16.90;61.40
60033;DHT22;45905;50.570;10.428;2023-06-14T21:53:23;16.80;62.10
60033;DHT22;45905;50.570;10.428;2023-06-14T21:55:51;16.80;62.10
60033;DHT22;45905;50.570;10.428;2023-06-14T21:58:18;16.70;61.60
60033;DHT22;45905;50.570;10.428;2023-06-14T22:00:45;16.70;61.60
60033;DHT22;45905;50.570;10.428;2023-06-14T22:03:13;16.50;61.10
60033;DHT22;45905;50.570;10.428;2023-06-14T22:05:40;16.40;61.80
60033;DHT22;45905;50.570;10.428;2023-06-14T22:08:07;16.50;62.00
60033;DHT22;45905;50.570;10.428;2023-06-14T22:10:35;16.60;62.50
60033;DHT22;45905;50.570;10.428;2023-06-14T22:13:04;16.40;62.10
60033;DHT22;45905;50.570;10.428;2023-06-14T22:15:32;16.40;62.50
60033;DHT22;45905;50.570;10.428;2023-06-14T22:18:00;16.10;62.80
60033;DHT22;45905;50.570;10.428;2023-06-14T22:20:27;16.40;63.20
60033;DHT22;45905;50.570;10.428;2023-06-14T22:22:55;16.20;62.60
60033;DHT22;45905;50.570;10.428;2023-06-14T22:25:28;16.20;63.10
60033;DHT22;45905;50.570;10.428;2023-06-14T22:27:55;16.20;62.50
60033;DHT22;45905;50.570;10.428;2023-06-14T22:30:23;16.10;62.90
60033;DHT22;45905;50.570;10.428;2023-06-14T22:32:51;16.00;64.20
60033;DHT22;45905;50.570;10.428;2023-06-14T22:35:20;16.00;64.80
60033;DHT22;45905;50.570;10.428;2023-06-14T22:37:47;16.00;65.30
60033;DHT22;45905;50.570;10.428;2023-06-14T22:40:16;15.80;66.40
60033;DHT22;45905;50.570;10.428;2023-06-14T22:42:45;15.80;66.80
60033;DHT22;45905;50.570;10.428;2023-06-14T22:45:16;15.50;65.60
60033;DHT22;45905;50.570;10.428;2023-06-14T22:47:55;15.60;66.60
60033;DHT22;45905;50.570;10.428;2023-06-14T22:50:23;15.50;66.30
60033;DHT22;45905;50.570;10.428;2023-06-14T22:52:51;15.60;66.60
60033;DHT22;45905;50.570;10.428;2023-06-14T22:55:19;15.50;67.10
60033;DHT22;45905;50.570;10.428;2023-06-14T22:57:46;15.50;67.30
60033;DHT22;45905;50.570;10.428;2023-06-14T23:00:14;15.40;66.40
60033;DHT22;45905;50.570;10.428;2023-06-14T23:02:42;15.40;66.00
60033;DHT22;45905;50.570;10.428;2023-06-14T23:07:39;15.50;67.60
60033;DHT22;45905;50.570;10.428;2023-06-14T23:10:07;15.20;67.20
60033;DHT22;45905;50.570;10.428;2023-06-14T23:12:35;15.20;67.60
60033;DHT22;45905;50.570;10.428;2023-06-14T23:15:02;15.20;68.30
60033;DHT22;45905;50.570;10.428;2023-06-14T23:17:31;15.10;69.80
60033;DHT22;45905;50.570;10.428;2023-06-14T23:20:00;14.50;69.50
60033;DHT22;45905;50.570;10.428;2023-06-14T23:22:37;15.10;69.90
60033;DHT22;45905;50.570;10.428;2023-06-14T23:25:09;15.00;68.90
60033;DHT22;45905;50.570;10.428;2023-06-14T23:27:36;15.00;68.20
60033;DHT22;45905;50.570;10.428;2023-06-14T23:30:05;14.90;68.70
60033;DHT22;45905;50.570;10.428;2023-06-14T23:32:33;14.90;69.50
60033;DHT22;45905;50.570;10.428;2023-06-14T23:35:02;18.40;73.60
60033;DHT22;45905;50.570;10.428;2023-06-14T23:37:31;14.80;70.70
60033;DHT22;45905;50.570;10.428;2023-06-14T23:39:59;14.80;70.30
60033;DHT22;45905;50.570;10.428;2023-06-14T23:42:28;14.70;69.40
60033;DHT22;45905;50.570;10.428;2023-06-14T23:44:58;14.70;69.00
60033;DHT22;45905;50.570;10.428;2023-06-14T23:47:28;14.60;68.80
60033;DHT22;45905;50.570;10.428;2023-06-14T23:50:00;14.60;69.00
60033;DHT22;45905;50.570;10.428;2023-06-14T23:52:29;14.60;69.20
60033;DHT22;45905;50.570;10.428;2023-06-14T23:54:58;17.70;72.70
60033;DHT22;45905;50.570;10.428;2023-06-14T23:57:29;14.50;70.90
60033;DHT22;45905;50.570;10.428;2023-06-14T23:59:56;14.60;71.60
